sensor_id;sensor_type;location;lat;lon;timestamp;temperature;humidity
27506;DHT22;14939;43.596;1.320;2024-01-07T00:01:39;5.70;99.90
27506;DHT22;14939;43.596;1.320;2024-01-07T00:04:04;5.70;99.90
27506;DHT22;14939;43.596;1.320;2024-01-07T00:06:30;5.70;99.90
27506;DHT22;14939;43.596;1.320;2024-01-07T00:08:55;5.70;99.90
27506;DHT22;14939;43.596;1.320;2024-01-07T00:11:22;5.70;99.90
27506;DHT22;14939;43.596;1.320;2024-01-07T00:13:48;5.60;99.90
27506;DHT22;14939;43.596;1.320;2024-01-07T00:16:14;5.60;99.90
27506;DHT22;14939;43.596;1.320;2024-01-07T00:18:39;5.60;99.90
27506;DHT22;14939;43.596;1.320;2024-01-07T00:21:05;5.60;99.90
27506;DHT22;14939;43.596;1.320;2024-01-07T00:23:31;5.60;99.90
27506;DHT22;14939;43.596;1.320;2024-01-07T00:25:56;5.60;99.90
27506;DHT22;14939;43.596;1.320;2024-01-07T00:28:22;5.60;99.90
27506;DHT22;14939;43.596;1.320;2024-01-07T00:30:47;5.60;99.90
27506;DHT22;14939;43.596;1.320;2024-01-07T00:33:13;5.60;99.90
27506;DHT22;14939;43.596;1.320;2024-01-07T00:35:39;5.60;99.90
27506;DHT22;14939;43.596;1.320;2024-01-07T00:38:04;5.60;99.90
27506;DHT22;14939;43.596;1.320;2024-01-07T00:40:30;5.60;99.90
27506;DHT22;14939;43.596;1.320;2024-01-07T00:42:55;5.60;99.90
27506;DHT22;14939;43.596;1.320;2024-01-07T00:45:21;5.60;99.90
27506;DHT22;14939;43.596;1.320;2024-01-07T00:47:47;5.60;99.90
27506;DHT22;14939;43.596;1.320;2024-01-07T00:50:12;5.60;99.90
27506;DHT22;14939;43.596;1.320;2024-01-07T00:52:38;5.60;99.90
27506;DHT22;14939;43.596;1.320;2024-01-07T00:55:07;5.50;99.90
27506;DHT22;14939;43.596;1.320;2024-01-07T00:57:33;5.50;99.90
27506;DHT22;14939;43.596;1.320;2024-01-07T00:59:59;5.50;99.90
27506;DHT22;14939;43.596;1.320;2024-01-07T01:02:25;5.50;99.90
27506;DHT22;14939;43.596;1.320;2024-01-07T01:04:51;5.50;99.90
27506;DHT22;14939;43.596;1.320;2024-01-07T01:07:16;5.50;99.90
27506;DHT22;14939;43.596;1.320;2024-01-07T01:09:42;5.50;99.90
27506;DHT22;14939;43.596;1.320;2024-01-07T01:12:08;5.40;99.90
27506;DHT22;14939;43.596;1.320;2024-01-07T01:14:33;5.40;99.90
27506;DHT22;14939;43.596;1.320;2024-01-07T01:16:59;5.40;99.90
27506;DHT22;14939;43.596;1.320;2024-01-07T01:19:24;5.40;99.90
27506;DHT22;14939;43.596;1.320;2024-01-07T01:21:50;5.40;99.90
27506;DHT22;14939;43.596;1.320;2024-01-07T01:24:16;5.40;99.90
27506;DHT22;14939;43.596;1.320;2024-01-07T01:26:41;5.40;99.90
27506;DHT22;14939;43.596;1.320;2024-01-07T01:29:07;5.40;99.90
27506;DHT22;14939;43.596;1.320;2024-01-07T01:31:33;5.40;99.90
27506;DHT22;14939;43.596;1.320;2024-01-07T01:33:58;5.40;99.90
27506;DHT22;14939;43.596;1.320;2024-01-07T01:36:24;5.40;99.90
27506;DHT22;14939;43.596;1.320;2024-01-07T01:38:50;5.40;99.90
27506;DHT22;14939;43.596;1.320;2024-01-07T01:41:18;5.30;99.90
27506;DHT22;14939;43.596;1.320;2024-01-07T01:43:44;5.30;99.90
27506;DHT22;14939;43.596;1.320;2024-01-07T01:46:09;5.30;99.90
27506;DHT22;14939;43.596;1.320;2024-01-07T01:48:38;5.30;99.90
27506;DHT22;14939;43.596;1.320;2024-01-07T01:51:05;5.30;99.90
27506;DHT22;14939;43.596;1.320;2024-01-07T01:53:32;5.30;99.90
27506;DHT22;14939;43.596;1.320;2024-01-07T01:56:00;5.30;99.90
27506;DHT22;14939;43.596;1.320;2024-01-07T01:58:26;5.30;99.90
27506;DHT22;14939;43.596;1.320;2024-01-07T02:00:53;5.30;99.90
27506;DHT22;14939;43.596;1.320;2024-01-07T02:03:19;5.30;99.90
27506;DHT22;14939;43.596;1.320;2024-01-07T02:05:45;5.30;99.90
27506;DHT22;14939;43.596;1.320;2024-01-07T02:08:13;5.30;99.90
27506;DHT22;14939;43.596;1.320;2024-01-07T02:10:39;5.30;99.90
27506;DHT22;14939;43.596;1.320;2024-01-07T02:13:04;5.30;99.90
27506;DHT22;14939;43.596;1.320;2024-01-07T02:15:30;5.20;99.90
27506;DHT22;14939;43.596;1.320;2024-01-07T02:17:56;5.20;99.90
27506;DHT22;14939;43.596;1.320;2024-01-07T02:20:22;5.20;99.90
27506;DHT22;14939;43.596;1.320;2024-01-07T02:22:48;5.10;99.90
27506;DHT22;14939;43.596;1.320;2024-01-07T02:25:14;5.10;99.90
27506;DHT22;14939;43.596;1.320;2024-01-07T02:27:39;5.10;99.90
27506;DHT22;14939;43.596;1.320;2024-01-07T02:30:05;5.00;99.90
27506;DHT22;14939;43.596;1.320;2024-01-07T02:32:31;5.00;99.90
27506;DHT22;14939;43.596;1.320;2024-01-07T02:34:59;5.00;99.90
27506;DHT22;14939;43.596;1.320;2024-01-07T02:37:25;5.10;99.90
27506;DHT22;14939;43.596;1.320;2024-01-07T02:39:51;5.10;99.90
27506;DHT22;14939;43.596;1.320;2024-01-07T02:42:16;5.10;99.90
27506;DHT22;14939;43.596;1.320;2024-01-07T02:44:42;5.10;99.90
27506;DHT22;14939;43.596;1.320;2024-01-07T02:47:08;5.10;99.90
27506;DHT22;14939;43.596;1.320;2024-01-07T02:49:33;5.10;99.90
27506;DHT22;14939;43.596;1.320;2024-01-07T02:51:59;5.10;99.90
27506;DHT22;14939;43.596;1.320;2024-01-07T02:54:24;5.10;99.90
27506;DHT22;14939;43.596;1.320;2024-01-07T02:56:50;5.10;99.90
27506;DHT22;14939;43.596;1.320;2024-01-07T02:59:16;5.10;99.90
27506;DHT22;14939;43.596;1.320;2024-01-07T03:01:41;5.10;99.90
27506;DHT22;14939;43.596;1.320;2024-01-07T03:04:12;5.10;99.90
27506;DHT22;14939;43.596;1.320;2024-01-07T03:06:37;5.10;99.90
27506;DHT22;14939;43.596;1.320;2024-01-07T03:09:03;5.10;99.90
27506;DHT22;14939;43.596;1.320;2024-01-07T03:11:29;5.10;99.90
27506;DHT22;14939;43.596;1.320;2024-01-07T03:13:55;5.10;99.90
27506;DHT22;14939;43.596;1.320;2024-01-07T03:16:21;5.10;99.90
27506;DHT22;14939;43.596;1.320;2024-01-07T03:18:47;5.10;99.90
27506;DHT22;14939;43.596;1.320;2024-01-07T03:21:21;5.10;99.90
27506;DHT22;14939;43.596;1.320;2024-01-07T03:23:48;5.00;99.90
27506;DHT22;14939;43.596;1.320;2024-01-07T03:26:15;4.90;99.90
27506;DHT22;14939;43.596;1.320;2024-01-07T03:28:41;4.90;99.90
27506;DHT22;14939;43.596;1.320;2024-01-07T03:31:12;4.90;99.90
27506;DHT22;14939;43.596;1.320;2024-01-07T03:33:38;4.90;99.90
27506;DHT22;14939;43.596;1.320;2024-01-07T03:36:08;4.90;99.90
27506;DHT22;14939;43.596;1.320;2024-01-07T03:38:34;4.90;99.90
27506;DHT22;14939;43.596;1.320;2024-01-07T03:41:00;4.90;99.90
27506;DHT22;14939;43.596;1.320;2024-01-07T03:43:26;4.90;99.90
27506;DHT22;14939;43.596;1.320;2024-01-07T03:45:51;4.90;99.90
27506;DHT22;14939;43.596;1.320;2024-01-07T03:48:17;4.90;99.90
27506;DHT22;14939;43.596;1.320;2024-01-07T03:50:42;4.90;99.90
27506;DHT22;14939;43.596;1.320;2024-01-07T03:53:09;4.90;99.90
27506;DHT22;14939;43.596;1.320;2024-01-07T03:55:34;4.90;99.90
27506;DHT22;14939;43.596;1.320;2024-01-07T03:58:00;4.90;99.90
27506;DHT22;14939;43.596;1.320;2024-01-07T04:00:25;4.90;99.90
27506;DHT22;14939;43.596;1.320;2024-01-07T04:02:51;4.90;99.90
27506;DHT22;14939;43.596;1.320;2024-01-07T04:05:17;4.90;99.90
27506;DHT22;14939;43.596;1.320;2024-01-07T04:07:42;4.90;99.90
27506;DHT22;14939;43.596;1.320;2024-01-07T04:10:08;4.90;99.90
27506;DHT22;14939;43.596;1.320;2024-01-07T04:12:34;4.90;99.90
27506;DHT22;14939;43.596;1.320;2024-01-07T04:14:59;4.90;99.90
27506;DHT22;14939;43.596;1.320;2024-01-07T04:17:25;4.80;99.90
27506;DHT22;14939;43.596;1.320;2024-01-07T04:19:52;4.80;99.90
27506;DHT22;14939;43.596;1.320;2024-01-07T04:22:18;4.80;99.90
27506;DHT22;14939;43.596;1.320;2024-01-07T04:24:44;4.80;99.90
27506;DHT22;14939;43.596;1.320;2024-01-07T04:27:09;4.80;99.90
27506;DHT22;14939;43.596;1.320;2024-01-07T04:29:36;4.70;99.90
27506;DHT22;14939;43.596;1.320;2024-01-07T04:32:01;4.70;99.90
27506;DHT22;14939;43.596;1.320;2024-01-07T04:34:27;4.70;99.90
27506;DHT22;14939;43.596;1.320;2024-01-07T04:36:52;4.70;99.90
27506;DHT22;14939;43.596;1.320;2024-01-07T04:39:18;4.70;99.90
27506;DHT22;14939;43.596;1.320;2024-01-07T04:41:44;4.70;99.90
27506;DHT22;14939;43.596;1.320;2024-01-07T04:44:09;4.70;99.90
27506;DHT22;14939;43.596;1.320;2024-01-07T04:46:38;4.70;99.90
27506;DHT22;14939;43.596;1.320;2024-01-07T04:49:04;4.70;99.90
27506;DHT22;14939;43.596;1.320;2024-01-07T04:51:31;4.70;99.90
27506;DHT22;14939;43.596;1.320;2024-01-07T04:53:57;4.70;99.90
27506;DHT22;14939;43.596;1.320;2024-01-07T04:56:22;4.60;99.90
27506;DHT22;14939;43.596;1.320;2024-01-07T04:58:48;4.60;99.90
27506;DHT22;14939;43.596;1.320;2024-01-07T05:01:14;4.60;99.90
27506;DHT22;14939;43.596;1.320;2024-01-07T05:03:40;4.60;99.90
27506;DHT22;14939;43.596;1.320;2024-01-07T05:06:08;4.60;99.90
27506;DHT22;14939;43.596;1.320;2024-01-07T05:08:34;4.50;99.90
27506;DHT22;14939;43.596;1.320;2024-01-07T05:10:59;4.50;99.90
27506;DHT22;14939;43.596;1.320;2024-01-07T05:13:25;4.50;99.90
27506;DHT22;14939;43.596;1.320;2024-01-07T05:15:51;4.50;99.90
27506;DHT22;14939;43.596;1.320;2024-01-07T05:18:23;4.50;99.90
27506;DHT22;14939;43.596;1.320;2024-01-07T05:20:49;4.50;99.90
27506;DHT22;14939;43.596;1.320;2024-01-07T05:23:15;4.40;99.90
27506;DHT22;14939;43.596;1.320;2024-01-07T05:25:43;4.40;99.90
27506;DHT22;14939;43.596;1.320;2024-01-07T05:28:09;4.40;99.90
27506;DHT22;14939;43.596;1.320;2024-01-07T05:30:34;4.40;99.90
27506;DHT22;14939;43.596;1.320;2024-01-07T05:33:00;4.40;99.90
27506;DHT22;14939;43.596;1.320;2024-01-07T05:35:26;4.40;99.90
27506;DHT22;14939;43.596;1.320;2024-01-07T05:37:52;4.30;99.90
27506;DHT22;14939;43.596;1.320;2024-01-07T05:40:17;4.40;99.90
27506;DHT22;14939;43.596;1.320;2024-01-07T05:42:43;4.40;99.90
27506;DHT22;14939;43.596;1.320;2024-01-07T05:45:09;4.40;99.90
27506;DHT22;14939;43.596;1.320;2024-01-07T05:47:34;4.40;99.90
27506;DHT22;14939;43.596;1.320;2024-01-07T05:50:00;4.40;99.90
27506;DHT22;14939;43.596;1.320;2024-01-07T05:52:26;4.40;99.90
27506;DHT22;14939;43.596;1.320;2024-01-07T05:54:51;4.40;99.90
27506;DHT22;14939;43.596;1.320;2024-01-07T05:57:17;4.40;99.90
27506;DHT22;14939;43.596;1.320;2024-01-07T05:59:45;4.40;99.90
27506;DHT22;14939;43.596;1.320;2024-01-07T06:02:11;4.40;99.90
27506;DHT22;14939;43.596;1.320;2024-01-07T06:04:38;4.40;99.90
27506;DHT22;14939;43.596;1.320;2024-01-07T06:07:04;4.40;99.90
27506;DHT22;14939;43.596;1.320;2024-01-07T06:09:29;4.40;99.90
27506;DHT22;14939;43.596;1.320;2024-01-07T06:11:55;4.40;99.90
27506;DHT22;14939;43.596;1.320;2024-01-07T06:14:22;4.40;99.90
27506;DHT22;14939;43.596;1.320;2024-01-07T06:16:49;4.40;99.90
27506;DHT22;14939;43.596;1.320;2024-01-07T06:19:16;4.40;99.90
27506;DHT22;14939;43.596;1.320;2024-01-07T06:21:42;4.40;99.90
27506;DHT22;14939;43.596;1.320;2024-01-07T06:24:08;4.40;99.90
27506;DHT22;14939;43.596;1.320;2024-01-07T06:26:34;4.40;99.90
27506;DHT22;14939;43.596;1.320;2024-01-07T06:29:00;4.40;99.90
27506;DHT22;14939;43.596;1.320;2024-01-07T06:31:26;4.40;99.90
27506;DHT22;14939;43.596;1.320;2024-01-07T06:33:52;4.40;99.90
27506;DHT22;14939;43.596;1.320;2024-01-07T06:36:18;4.40;99.90
27506;DHT22;14939;43.596;1.320;2024-01-07T06:38:43;4.40;99.90
27506;DHT22;14939;43.596;1.320;2024-01-07T06:41:11;4.40;99.90
27506;DHT22;14939;43.596;1.320;2024-01-07T06:43:36;4.40;99.90
27506;DHT22;14939;43.596;1.320;2024-01-07T06:46:02;4.40;99.90
27506;DHT22;14939;43.596;1.320;2024-01-07T06:48:27;4.40;99.90
27506;DHT22;14939;43.596;1.320;2024-01-07T06:50:53;4.40;99.90
27506;DHT22;14939;43.596;1.320;2024-01-07T06:53:19;4.40;99.90
27506;DHT22;14939;43.596;1.320;2024-01-07T06:55:44;4.40;99.90
27506;DHT22;14939;43.596;1.320;2024-01-07T06:58:10;4.40;99.90
27506;DHT22;14939;43.596;1.320;2024-01-07T07:00:36;4.40;99.90
27506;DHT22;14939;43.596;1.320;2024-01-07T07:03:01;4.40;99.90
27506;DHT22;14939;43.596;1.320;2024-01-07T07:05:27;4.40;99.90
27506;DHT22;14939;43.596;1.320;2024-01-07T07:07:52;4.40;99.90
27506;DHT22;14939;43.596;1.320;2024-01-07T07:10:18;4.40;99.90
27506;DHT22;14939;43.596;1.320;2024-01-07T07:12:44;4.40;99.90
27506;DHT22;14939;43.596;1.320;2024-01-07T07:15:09;4.40;99.90
27506;DHT22;14939;43.596;1.320;2024-01-07T07:17:37;4.40;99.90
27506;DHT22;14939;43.596;1.320;2024-01-07T07:20:04;4.30;99.90
27506;DHT22;14939;43.596;1.320;2024-01-07T07:22:30;4.40;99.90
27506;DHT22;14939;43.596;1.320;2024-01-07T07:24:56;4.40;99.90
27506;DHT22;14939;43.596;1.320;2024-01-07T07:27:21;4.40;99.90
27506;DHT22;14939;43.596;1.320;2024-01-07T07:29:47;4.30;99.90
27506;DHT22;14939;43.596;1.320;2024-01-07T07:32:13;4.30;99.90
27506;DHT22;14939;43.596;1.320;2024-01-07T07:34:38;4.30;99.90
27506;DHT22;14939;43.596;1.320;2024-01-07T07:37:04;4.30;99.90
27506;DHT22;14939;43.596;1.320;2024-01-07T07:39:29;4.30;99.90
27506;DHT22;14939;43.596;1.320;2024-01-07T07:41:55;4.30;99.90
27506;DHT22;14939;43.596;1.320;2024-01-07T07:44:21;4.20;99.90
27506;DHT22;14939;43.596;1.320;2024-01-07T07:46:46;4.20;99.90
27506;DHT22;14939;43.596;1.320;2024-01-07T07:49:12;4.20;99.90
27506;DHT22;14939;43.596;1.320;2024-01-07T07:51:38;4.20;99.90
27506;DHT22;14939;43.596;1.320;2024-01-07T07:54:04;4.30;99.90
27506;DHT22;14939;43.596;1.320;2024-01-07T07:56:29;4.20;99.90
27506;DHT22;14939;43.596;1.320;2024-01-07T07:58:55;4.20;99.90
27506;DHT22;14939;43.596;1.320;2024-01-07T08:01:21;4.20;99.90
27506;DHT22;14939;43.596;1.320;2024-01-07T08:03:46;4.20;99.90
27506;DHT22;14939;43.596;1.320;2024-01-07T08:06:12;4.20;99.90
27506;DHT22;14939;43.596;1.320;2024-01-07T08:08:38;4.20;99.90
27506;DHT22;14939;43.596;1.320;2024-01-07T08:11:03;4.20;99.90
27506;DHT22;14939;43.596;1.320;2024-01-07T08:13:34;4.20;99.90
27506;DHT22;14939;43.596;1.320;2024-01-07T08:16:00;4.20;99.90
27506;DHT22;14939;43.596;1.320;2024-01-07T08:18:26;4.10;99.90
27506;DHT22;14939;43.596;1.320;2024-01-07T08:20:51;4.10;99.90
27506;DHT22;14939;43.596;1.320;2024-01-07T08:23:17;4.10;99.90
27506;DHT22;14939;43.596;1.320;2024-01-07T08:25:43;4.20;99.90
27506;DHT22;14939;43.596;1.320;2024-01-07T08:28:10;4.20;99.90
27506;DHT22;14939;43.596;1.320;2024-01-07T08:30:36;4.20;99.90
27506;DHT22;14939;43.596;1.320;2024-01-07T08:33:01;4.20;99.90
27506;DHT22;14939;43.596;1.320;2024-01-07T08:35:27;4.20;99.90
27506;DHT22;14939;43.596;1.320;2024-01-07T08:37:52;4.00;99.90
27506;DHT22;14939;43.596;1.320;2024-01-07T08:40:18;4.00;99.90
27506;DHT22;14939;43.596;1.320;2024-01-07T08:42:44;3.90;99.90
27506;DHT22;14939;43.596;1.320;2024-01-07T08:45:10;3.90;99.90
27506;DHT22;14939;43.596;1.320;2024-01-07T08:47:36;3.90;99.90
27506;DHT22;14939;43.596;1.320;2024-01-07T08:50:02;3.90;99.90
27506;DHT22;14939;43.596;1.320;2024-01-07T08:52:28;3.90;99.90
27506;DHT22;14939;43.596;1.320;2024-01-07T08:54:54;3.90;99.90
27506;DHT22;14939;43.596;1.320;2024-01-07T08:57:20;4.00;99.90
27506;DHT22;14939;43.596;1.320;2024-01-07T08:59:46;4.00;99.90
27506;DHT22;14939;43.596;1.320;2024-01-07T09:02:12;4.00;99.90
27506;DHT22;14939;43.596;1.320;2024-01-07T09:04:38;4.10;99.90
27506;DHT22;14939;43.596;1.320;2024-01-07T09:07:04;4.10;99.90
27506;DHT22;14939;43.596;1.320;2024-01-07T09:09:30;4.10;99.90
27506;DHT22;14939;43.596;1.320;2024-01-07T09:11:55;4.20;99.90
27506;DHT22;14939;43.596;1.320;2024-01-07T09:14:23;4.20;99.90
27506;DHT22;14939;43.596;1.320;2024-01-07T09:16:50;4.10;99.90
27506;DHT22;14939;43.596;1.320;2024-01-07T09:19:16;4.10;99.90
27506;DHT22;14939;43.596;1.320;2024-01-07T09:21:43;4.20;99.90
27506;DHT22;14939;43.596;1.320;2024-01-07T09:24:09;4.20;99.90
27506;DHT22;14939;43.596;1.320;2024-01-07T09:26:34;4.20;99.90
27506;DHT22;14939;43.596;1.320;2024-01-07T09:29:00;4.10;99.90
27506;DHT22;14939;43.596;1.320;2024-01-07T09:31:27;4.10;99.90
27506;DHT22;14939;43.596;1.320;2024-01-07T09:33:52;4.00;99.90
27506;DHT22;14939;43.596;1.320;2024-01-07T09:36:18;4.00;99.90
27506;DHT22;14939;43.596;1.320;2024-01-07T09:38:44;4.10;99.90
27506;DHT22;14939;43.596;1.320;2024-01-07T09:41:10;4.30;99.90
27506;DHT22;14939;43.596;1.320;2024-01-07T09:43:35;4.60;99.90
27506;DHT22;14939;43.596;1.320;2024-01-07T09:46:02;4.60;99.90
27506;DHT22;14939;43.596;1.320;2024-01-07T09:48:28;4.60;99.90
27506;DHT22;14939;43.596;1.320;2024-01-07T09:50:54;4.50;99.90
27506;DHT22;14939;43.596;1.320;2024-01-07T09:53:20;4.50;99.90
27506;DHT22;14939;43.596;1.320;2024-01-07T09:58:31;4.60;99.90
27506;DHT22;14939;43.596;1.320;2024-01-07T10:00:57;4.40;99.90
27506;DHT22;14939;43.596;1.320;2024-01-07T10:03:23;4.40;99.90
27506;DHT22;14939;43.596;1.320;2024-01-07T10:05:48;4.50;99.90
27506;DHT22;14939;43.596;1.320;2024-01-07T10:08:14;4.80;99.90
27506;DHT22;14939;43.596;1.320;2024-01-07T10:10:40;4.90;99.90
27506;DHT22;14939;43.596;1.320;2024-01-07T10:13:06;5.00;99.90
27506;DHT22;14939;43.596;1.320;2024-01-07T10:15:34;5.00;99.90
27506;DHT22;14939;43.596;1.320;2024-01-07T10:18:04;4.90;99.90
27506;DHT22;14939;43.596;1.320;2024-01-07T10:20:32;4.90;99.90
27506;DHT22;14939;43.596;1.320;2024-01-07T10:22:59;4.90;99.90
27506;DHT22;14939;43.596;1.320;2024-01-07T10:25:24;5.00;99.90
27506;DHT22;14939;43.596;1.320;2024-01-07T10:27:50;5.20;99.90
27506;DHT22;14939;43.596;1.320;2024-01-07T10:30:16;5.20;99.90
27506;DHT22;14939;43.596;1.320;2024-01-07T10:32:42;5.20;99.90
27506;DHT22;14939;43.596;1.320;2024-01-07T10:35:13;5.20;99.90
27506;DHT22;14939;43.596;1.320;2024-01-07T10:37:40;5.30;99.90
27506;DHT22;14939;43.596;1.320;2024-01-07T10:40:07;5.10;99.90
27506;DHT22;14939;43.596;1.320;2024-01-07T10:42:33;5.20;99.90
27506;DHT22;14939;43.596;1.320;2024-01-07T10:45:00;5.10;99.90
27506;DHT22;14939;43.596;1.320;2024-01-07T10:47:30;5.40;99.90
27506;DHT22;14939;43.596;1.320;2024-01-07T10:49:58;5.40;99.90
27506;DHT22;14939;43.596;1.320;2024-01-07T10:52:26;5.30;99.90
27506;DHT22;14939;43.596;1.320;2024-01-07T10:54:54;5.20;99.90
27506;DHT22;14939;43.596;1.320;2024-01-07T10:57:46;5.20;99.90
27506;DHT22;14939;43.596;1.320;2024-01-07T11:00:13;5.10;99.90
27506;DHT22;14939;43.596;1.320;2024-01-07T11:05:48;5.10;99.90
27506;DHT22;14939;43.596;1.320;2024-01-07T11:08:32;5.20;99.90
27506;DHT22;14939;43.596;1.320;2024-01-07T11:11:06;5.40;99.90
27506;DHT22;14939;43.596;1.320;2024-01-07T11:13:36;5.40;99.90
27506;DHT22;14939;43.596;1.320;2024-01-07T11:16:07;5.20;99.90
27506;DHT22;14939;43.596;1.320;2024-01-07T11:18:40;5.30;99.90
27506;DHT22;14939;43.596;1.320;2024-01-07T11:21:10;5.40;99.90
27506;DHT22;14939;43.596;1.320;2024-01-07T11:23:37;5.50;99.90
27506;DHT22;14939;43.596;1.320;2024-01-07T11:26:08;5.30;99.90
27506;DHT22;14939;43.596;1.320;2024-01-07T11:28:53;5.40;99.90
27506;DHT22;14939;43.596;1.320;2024-01-07T11:31:43;5.60;99.90
27506;DHT22;14939;43.596;1.320;2024-01-07T11:34:08;5.50;99.90
27506;DHT22;14939;43.596;1.320;2024-01-07T11:36:37;5.50;99.90
27506;DHT22;14939;43.596;1.320;2024-01-07T11:39:04;5.40;99.90
27506;DHT22;14939;43.596;1.320;2024-01-07T11:41:35;5.40;99.90
27506;DHT22;14939;43.596;1.320;2024-01-07T11:44:01;5.30;99.90
27506;DHT22;14939;43.596;1.320;2024-01-07T11:46:28;5.40;99.90
27506;DHT22;14939;43.596;1.320;2024-01-07T11:48:56;5.40;99.90
27506;DHT22;14939;43.596;1.320;2024-01-07T11:51:28;5.40;99.90
27506;DHT22;14939;43.596;1.320;2024-01-07T11:53:56;5.40;99.90
27506;DHT22;14939;43.596;1.320;2024-01-07T11:56:22;5.30;99.90
27506;DHT22;14939;43.596;1.320;2024-01-07T11:58:48;5.40;99.90
27506;DHT22;14939;43.596;1.320;2024-01-07T12:01:18;5.40;99.90
27506;DHT22;14939;43.596;1.320;2024-01-07T12:03:44;5.50;99.90
27506;DHT22;14939;43.596;1.320;2024-01-07T12:06:10;5.40;99.90
27506;DHT22;14939;43.596;1.320;2024-01-07T12:08:43;5.50;99.90
27506;DHT22;14939;43.596;1.320;2024-01-07T12:11:13;5.50;99.90
27506;DHT22;14939;43.596;1.320;2024-01-07T12:13:39;5.50;99.90
27506;DHT22;14939;43.596;1.320;2024-01-07T12:16:06;5.60;99.90
27506;DHT22;14939;43.596;1.320;2024-01-07T12:18:32;5.40;99.90
27506;DHT22;14939;43.596;1.320;2024-01-07T12:20:59;5.40;99.90
27506;DHT22;14939;43.596;1.320;2024-01-07T12:23:26;5.40;99.90
27506;DHT22;14939;43.596;1.320;2024-01-07T12:25:52;5.40;99.90
27506;DHT22;14939;43.596;1.320;2024-01-07T12:28:19;5.30;99.90
27506;DHT22;14939;43.596;1.320;2024-01-07T12:30:45;5.30;99.90
27506;DHT22;14939;43.596;1.320;2024-01-07T12:33:16;5.30;99.90
27506;DHT22;14939;43.596;1.320;2024-01-07T12:35:45;5.30;99.90
27506;DHT22;14939;43.596;1.320;2024-01-07T12:38:10;5.30;99.90
27506;DHT22;14939;43.596;1.320;2024-01-07T12:40:36;5.30;99.90
27506;DHT22;14939;43.596;1.320;2024-01-07T12:43:02;5.20;99.90
27506;DHT22;14939;43.596;1.320;2024-01-07T12:45:27;5.10;99.90
27506;DHT22;14939;43.596;1.320;2024-01-07T12:47:53;5.20;99.90
27506;DHT22;14939;43.596;1.320;2024-01-07T12:50:24;5.20;99.90
27506;DHT22;14939;43.596;1.320;2024-01-07T12:52:53;5.20;99.90
27506;DHT22;14939;43.596;1.320;2024-01-07T12:55:19;5.20;99.90
27506;DHT22;14939;43.596;1.320;2024-01-07T12:57:44;5.20;99.90
27506;DHT22;14939;43.596;1.320;2024-01-07T13:00:10;5.20;99.90
27506;DHT22;14939;43.596;1.320;2024-01-07T13:02:37;5.20;99.90
27506;DHT22;14939;43.596;1.320;2024-01-07T13:05:02;5.10;99.90
27506;DHT22;14939;43.596;1.320;2024-01-07T13:07:28;5.10;99.90
27506;DHT22;14939;43.596;1.320;2024-01-07T13:09:54;5.10;99.90
27506;DHT22;14939;43.596;1.320;2024-01-07T13:12:20;5.20;99.90
27506;DHT22;14939;43.596;1.320;2024-01-07T13:14:45;5.20;99.90
27506;DHT22;14939;43.596;1.320;2024-01-07T13:17:13;5.20;99.90
27506;DHT22;14939;43.596;1.320;2024-01-07T13:19:38;5.30;99.90
27506;DHT22;14939;43.596;1.320;2024-01-07T13:22:04;5.20;99.90
27506;DHT22;14939;43.596;1.320;2024-01-07T13:24:30;5.30;99.90
27506;DHT22;14939;43.596;1.320;2024-01-07T13:26:56;5.30;99.90
27506;DHT22;14939;43.596;1.320;2024-01-07T13:29:22;5.20;99.90
27506;DHT22;14939;43.596;1.320;2024-01-07T13:31:47;5.20;99.90
27506;DHT22;14939;43.596;1.320;2024-01-07T13:34:13;5.20;99.90
27506;DHT22;14939;43.596;1.320;2024-01-07T13:36:40;5.20;99.90
27506;DHT22;14939;43.596;1.320;2024-01-07T13:39:06;5.20;99.90
27506;DHT22;14939;43.596;1.320;2024-01-07T13:41:33;5.20;99.90
27506;DHT22;14939;43.596;1.320;2024-01-07T13:44:00;5.20;99.90
27506;DHT22;14939;43.596;1.320;2024-01-07T13:46:25;5.20;99.90
27506;DHT22;14939;43.596;1.320;2024-01-07T13:48:51;5.20;99.90
27506;DHT22;14939;43.596;1.320;2024-01-07T13:51:17;5.20;99.90
27506;DHT22;14939;43.596;1.320;2024-01-07T13:53:43;5.20;99.90
27506;DHT22;14939;43.596;1.320;2024-01-07T13:56:11;5.20;99.90
27506;DHT22;14939;43.596;1.320;2024-01-07T13:58:36;5.20;99.90
27506;DHT22;14939;43.596;1.320;2024-01-07T14:01:02;5.20;99.90
27506;DHT22;14939;43.596;1.320;2024-01-07T14:03:28;5.20;99.90
27506;DHT22;14939;43.596;1.320;2024-01-07T14:05:56;5.30;99.90
27506;DHT22;14939;43.596;1.320;2024-01-07T14:08:21;5.20;99.90
27506;DHT22;14939;43.596;1.320;2024-01-07T14:10:47;5.20;99.90
27506;DHT22;14939;43.596;1.320;2024-01-07T14:13:14;5.20;99.90
27506;DHT22;14939;43.596;1.320;2024-01-07T14:15:39;5.20;99.90
27506;DHT22;14939;43.596;1.320;2024-01-07T14:18:05;5.30;99.90
27506;DHT22;14939;43.596;1.320;2024-01-07T14:20:31;5.30;99.90
27506;DHT22;14939;43.596;1.320;2024-01-07T14:22:57;5.30;99.90
27506;DHT22;14939;43.596;1.320;2024-01-07T14:25:24;5.30;99.90
27506;DHT22;14939;43.596;1.320;2024-01-07T14:27:49;5.20;99.90
27506;DHT22;14939;43.596;1.320;2024-01-07T14:30:15;5.20;99.90
27506;DHT22;14939;43.596;1.320;2024-01-07T14:32:41;5.20;99.90
27506;DHT22;14939;43.596;1.320;2024-01-07T14:35:07;5.20;99.90
27506;DHT22;14939;43.596;1.320;2024-01-07T14:37:33;5.20;99.90
27506;DHT22;14939;43.596;1.320;2024-01-07T14:39:58;5.20;99.90
27506;DHT22;14939;43.596;1.320;2024-01-07T14:42:24;5.20;99.90
27506;DHT22;14939;43.596;1.320;2024-01-07T14:44:50;5.20;99.90
27506;DHT22;14939;43.596;1.320;2024-01-07T14:47:16;5.20;99.90
27506;DHT22;14939;43.596;1.320;2024-01-07T14:49:41;5.20;99.90
27506;DHT22;14939;43.596;1.320;2024-01-07T14:52:07;5.20;99.90
27506;DHT22;14939;43.596;1.320;2024-01-07T14:54:33;5.20;99.90
27506;DHT22;14939;43.596;1.320;2024-01-07T14:57:00;5.10;99.90
27506;DHT22;14939;43.596;1.320;2024-01-07T14:59:26;5.10;99.90
27506;DHT22;14939;43.596;1.320;2024-01-07T15:01:52;5.10;99.90
27506;DHT22;14939;43.596;1.320;2024-01-07T15:04:19;5.10;99.90
27506;DHT22;14939;43.596;1.320;2024-01-07T15:06:44;5.10;99.90
27506;DHT22;14939;43.596;1.320;2024-01-07T15:09:11;5.10;99.90
27506;DHT22;14939;43.596;1.320;2024-01-07T15:11:39;5.10;99.90
27506;DHT22;14939;43.596;1.320;2024-01-07T15:14:08;5.10;99.90
27506;DHT22;14939;43.596;1.320;2024-01-07T15:16:36;5.10;99.90
27506;DHT22;14939;43.596;1.320;2024-01-07T15:19:02;5.10;99.90
27506;DHT22;14939;43.596;1.320;2024-01-07T15:21:29;5.10;99.90
27506;DHT22;14939;43.596;1.320;2024-01-07T15:23:54;5.10;99.90
27506;DHT22;14939;43.596;1.320;2024-01-07T15:26:20;5.00;99.90
27506;DHT22;14939;43.596;1.320;2024-01-07T15:28:46;5.00;99.90
27506;DHT22;14939;43.596;1.320;2024-01-07T15:31:12;5.00;99.90
27506;DHT22;14939;43.596;1.320;2024-01-07T15:33:37;5.00;99.90
27506;DHT22;14939;43.596;1.320;2024-01-07T15:36:03;5.00;99.90
27506;DHT22;14939;43.596;1.320;2024-01-07T15:38:29;5.00;99.90
27506;DHT22;14939;43.596;1.320;2024-01-07T15:40:55;5.00;99.90
27506;DHT22;14939;43.596;1.320;2024-01-07T15:43:20;5.00;99.90
27506;DHT22;14939;43.596;1.320;2024-01-07T15:45:46;4.90;99.90